Time;durP1;ratioP1;P1;durP2;ratioP2;P2;SDS_P1;SDS_P2;PMS_P1;PMS_P2;Temp;Humidity;BMP_temperature;BMP_pressure;BME280_temperature;BME280_humidity;BME280_pressure;Samples;Min_cycle;Max_cycle;Signal;HPM_P1;HPM_P2
2021/05/16 00:01:00;;;;;;;;;;;20.60;55.10;;;;;;5014364;28;74599;-73
2021/05/16 00:03:26;;;;;;;;;;;20.60;54.90;;;;;;5032342;28;75106;-74
2021/05/16 00:05:51;;;;;;;;;;;20.50;54.80;;;;;;5032229;28;75305;-71
2021/05/16 00:08:17;;;;;;;;;;;20.50;54.60;;;;;;5014356;28;78468;-74
2021/05/16 00:10:43;;;;;;;;;;;20.50;54.40;;;;;;5014106;28;75232;-73
2021/05/16 00:13:10;;;;;;;;;;;20.50;54.30;;;;;;5033068;28;74520;-72
2021/05/16 00:15:36;;;;;;;;;;;20.50;54.50;;;;;;5013903;28;75771;-73
2021/05/16 00:18:02;;;;;;;;;;;20.50;54.70;;;;;;5033272;28;75516;-73
2021/05/16 00:20:29;;;;;;;;;;;20.50;54.60;;;;;;5014333;28;75461;-73
2021/05/16 00:22:55;;;;;;;;;;;20.50;55.40;;;;;;5051389;28;74518;-73
2021/05/16 00:25:21;;;;;;;;;;;20.40;54.70;;;;;;5014841;28;74506;-71
2021/05/16 00:27:47;;;;;;;;;;;20.40;54.70;;;;;;5034748;28;75044;-72
2021/05/16 00:30:14;;;;;;;;;;;20.40;54.60;;;;;;5020459;28;77239;-70
2021/05/16 00:32:40;;;;;;;;;;;20.40;54.20;;;;;;5038926;28;75733;-71
2021/05/16 00:35:07;;;;;;;;;;;20.40;53.60;;;;;;5020537;28;78004;-70
2021/05/16 00:37:32;;;;;;;;;;;20.40;52.90;;;;;;5020326;28;78495;-72
2021/05/16 00:39:58;;;;;;;;;;;20.30;52.60;;;;;;5020249;28;77242;-71
2021/05/16 00:42:24;;;;;;;;;;;20.30;52.30;;;;;;5020616;28;74820;-71
2021/05/16 00:44:56;;;;;;;;;;;20.20;52.20;;;;;;5020305;28;77529;-73
2021/05/16 00:47:23;;;;;;;;;;;20.20;52.60;;;;;;5054132;28;75160;-73
2021/05/16 00:49:49;;;;;;;;;;;20.10;53.60;;;;;;5038541;28;75801;-70
2021/05/16 00:52:14;;;;;;;;;;;20.10;54.50;;;;;;5019585;28;77495;-70
2021/05/16 00:54:40;;;;;;;;;;;20.00;54.70;;;;;;5038417;28;75217;-68
2021/05/16 00:57:05;;;;;;;;;;;20.00;54.50;;;;;;5019988;28;76447;-72
2021/05/16 00:59:31;;;;;;;;;;;19.90;54.50;;;;;;5038631;28;75639;-69
2021/05/16 01:01:57;;;;;;;;;;;19.90;54.60;;;;;;5019903;28;77509;-70
2021/05/16 01:04:23;;;;;;;;;;;19.90;55.30;;;;;;5020154;28;75281;-68
2021/05/16 01:06:49;;;;;;;;;;;19.90;55.30;;;;;;5038348;28;75219;-66
2021/05/16 01:09:14;;;;;;;;;;;19.80;55.90;;;;;;5038267;28;75144;-68
2021/05/16 01:11:44;;;;;;;;;;;19.80;55.90;;;;;;5020079;28;75360;-69
2021/05/16 01:14:15;;;;;;;;;;;19.80;57.00;;;;;;5020143;28;74546;-68
2021/05/16 01:16:42;;;;;;;;;;;19.70;57.20;;;;;;5052665;28;94331;-69
2021/05/16 01:19:08;;;;;;;;;;;19.60;58.10;;;;;;5038385;28;75282;-68
2021/05/16 01:21:33;;;;;;;;;;;19.60;57.80;;;;;;5019918;28;77051;-69
2021/05/16 01:23:59;;;;;;;;;;;19.50;58.10;;;;;;5019846;28;75372;-71
2021/05/16 01:26:24;;;;;;;;;;;19.50;58.90;;;;;;5038539;28;75129;-71
2021/05/16 01:28:50;;;;;;;;;;;19.50;58.40;;;;;;5020078;28;76628;-70
2021/05/16 01:31:16;;;;;;;;;;;19.50;58.60;;;;;;5019513;28;75652;-73
2021/05/16 01:33:41;;;;;;;;;;;19.40;58.80;;;;;;5038395;28;74571;-70
2021/05/16 01:36:07;;;;;;;;;;;19.40;59.30;;;;;;5019343;28;76359;-70
2021/05/16 01:38:35;;;;;;;;;;;19.40;59.30;;;;;;5021223;28;77511;-72
2021/05/16 01:41:01;;;;;;;;;;;19.30;59.20;;;;;;5049932;28;75303;-69
2021/05/16 01:43:31;;;;;;;;;;;19.30;59.40;;;;;;5017081;28;74434;-72
2021/05/16 01:45:57;;;;;;;;;;;19.30;59.30;;;;;;5016347;28;75819;-69
2021/05/16 01:48:23;;;;;;;;;;;19.20;60.30;;;;;;4999543;28;77404;-71
2021/05/16 01:50:48;;;;;;;;;;;19.20;60.00;;;;;;5016251;28;74505;-70
2021/05/16 01:53:14;;;;;;;;;;;19.20;60.70;;;;;;5015991;28;75145;-71
2021/05/16 01:55:40;;;;;;;;;;;19.10;60.40;;;;;;5016500;28;77842;-70
2021/05/16 01:58:06;;;;;;;;;;;19.10;60.50;;;;;;5016264;28;77319;-71
2021/05/16 02:00:39;;;;;;;;;;;19.00;60.60;;;;;;5016561;28;77362;-73
2021/05/16 02:03:05;;;;;;;;;;;19.00;61.00;;;;;;5015873;28;77244;-72
2021/05/16 02:05:31;;;;;;;;;;;19.00;61.20;;;;;;5034440;28;75126;-71
2021/05/16 02:07:57;;;;;;;;;;;18.90;61.50;;;;;;5015977;28;76577;-70
2021/05/16 02:10:23;;;;;;;;;;;18.90;61.30;;;;;;5015601;28;76140;-70
2021/05/16 02:12:48;;;;;;;;;;;18.90;61.60;;;;;;5015831;28;77142;-71
2021/05/16 02:15:15;;;;;;;;;;;18.80;62.60;;;;;;5016006;28;75382;-71
2021/05/16 02:17:42;;;;;;;;;;;18.70;62.10;;;;;;5034263;28;75472;-70
2021/05/16 02:20:08;;;;;;;;;;;18.70;61.90;;;;;;5016257;28;74690;-70
2021/05/16 02:22:34;;;;;;;;;;;18.70;62.10;;;;;;5032225;28;75104;-70
2021/05/16 02:25:00;;;;;;;;;;;18.60;61.80;;;;;;5034105;28;75476;-70
2021/05/16 02:27:25;;;;;;;;;;;18.60;61.90;;;;;;5015833;28;75168;-70
2021/05/16 02:29:51;;;;;;;;;;;18.60;61.80;;;;;;5016004;28;75352;-71
2021/05/16 02:32:17;;;;;;;;;;;18.60;62.30;;;;;;5015542;28;77459;-72
2021/05/16 02:34:43;;;;;;;;;;;18.50;62.10;;;;;;5034786;28;74380;-70
2021/05/16 02:37:09;;;;;;;;;;;18.50;62.50;;;;;;5015590;28;74543;-71
2021/05/16 02:39:35;;;;;;;;;;;18.50;62.10;;;;;;5015556;28;77041;-70
2021/05/16 02:42:00;;;;;;;;;;;18.40;62.40;;;;;;5033961;28;75223;-70
2021/05/16 02:44:28;;;;;;;;;;;18.40;62.20;;;;;;5015257;28;76558;-71
2021/05/16 02:46:54;;;;;;;;;;;18.40;62.60;;;;;;5015684;28;74884;-69
2021/05/16 02:49:20;;;;;;;;;;;18.30;62.40;;;;;;5015321;28;75463;-70
2021/05/16 02:51:45;;;;;;;;;;;18.40;62.30;;;;;;5033112;28;75612;-73
2021/05/16 02:54:11;;;;;;;;;;;18.40;62.30;;;;;;5015003;28;77581;-73
2021/05/16 02:56:37;;;;;;;;;;;18.30;62.30;;;;;;5033636;28;75717;-76
2021/05/16 02:59:02;;;;;;;;;;;18.40;62.20;;;;;;5015585;28;77426;-76
2021/05/16 03:01:28;;;;;;;;;;;18.40;62.10;;;;;;5033489;28;75276;-70
2021/05/16 03:03:54;;;;;;;;;;;18.40;62.30;;;;;;5033844;28;75090;-71
2021/05/16 03:06:19;;;;;;;;;;;18.40;62.20;;;;;;5015145;28;76263;-73
2021/05/16 03:08:45;;;;;;;;;;;18.40;62.30;;;;;;5031324;28;75041;-71
2021/05/16 03:11:11;;;;;;;;;;;18.40;62.30;;;;;;5015193;28;76324;-71
2021/05/16 03:13:37;;;;;;;;;;;18.40;62.50;;;;;;5033839;28;76154;-72
2021/05/16 03:16:02;;;;;;;;;;;18.40;62.40;;;;;;5033604;28;75117;-72
2021/05/16 03:18:28;;;;;;;;;;;18.40;62.40;;;;;;5033302;28;74993;-70
2021/05/16 03:20:53;;;;;;;;;;;18.40;62.30;;;;;;5014900;28;75699;-69
2021/05/16 03:23:19;;;;;;;;;;;18.30;62.40;;;;;;5034030;28;74509;-70
2021/05/16 03:25:45;;;;;;;;;;;18.30;62.50;;;;;;5014608;28;75040;-70
2021/05/16 03:28:11;;;;;;;;;;;18.30;62.40;;;;;;5033302;28;75077;-69
2021/05/16 03:30:36;;;;;;;;;;;18.30;62.80;;;;;;5048437;28;76261;-71
2021/05/16 03:33:02;;;;;;;;;;;18.20;62.90;;;;;;5014742;28;75833;-72
2021/05/16 03:35:28;;;;;;;;;;;18.20;62.90;;;;;;5014618;28;74437;-72
2021/05/16 03:37:53;;;;;;;;;;;18.20;62.90;;;;;;5014736;28;75382;-71
2021/05/16 03:40:19;;;;;;;;;;;18.10;63.00;;;;;;5032698;28;75815;-70
2021/05/16 03:42:44;;;;;;;;;;;18.20;63.00;;;;;;5014307;28;77210;-69
2021/05/16 03:45:10;;;;;;;;;;;18.10;63.10;;;;;;5014622;28;75718;-69
2021/05/16 03:47:38;;;;;;;;;;;18.00;63.10;;;;;;5014693;28;77721;-71
2021/05/16 03:50:04;;;;;;;;;;;18.00;63.40;;;;;;5014729;28;76225;-71
2021/05/16 03:52:30;;;;;;;;;;;18.00;63.70;;;;;;5032460;28;74981;-71
2021/05/16 03:54:55;;;;;;;;;;;18.00;63.70;;;;;;5014015;28;77310;-72
2021/05/16 03:57:24;;;;;;;;;;;18.00;63.70;;;;;;5014413;28;76349;-71
2021/05/16 03:59:50;;;;;;;;;;;17.90;63.70;;;;;;5014474;28;75769;-70
2021/05/16 04:02:16;;;;;;;;;;;17.90;63.90;;;;;;5032387;28;75291;-73
2021/05/16 04:04:42;;;;;;;;;;;17.90;63.90;;;;;;5032838;28;75402;-73
2021/05/16 04:07:07;;;;;;;;;;;17.90;64.30;;;;;;5013893;28;76510;-73
2021/05/16 04:09:33;;;;;;;;;;;17.90;64.00;;;;;;5023881;28;74998;-72
2021/05/16 04:11:59;;;;;;;;;;;17.90;64.40;;;;;;5032222;28;75637;-72
2021/05/16 04:14:25;;;;;;;;;;;17.80;64.50;;;;;;5014303;28;78370;-71
2021/05/16 04:16:51;;;;;;;;;;;17.80;64.70;;;;;;5032656;28;74424;-72
2021/05/16 04:19:17;;;;;;;;;;;17.70;64.60;;;;;;5014935;28;77477;-74
2021/05/16 04:21:42;;;;;;;;;;;17.70;64.50;;;;;;5013813;28;74558;-72
2021/05/16 04:24:08;;;;;;;;;;;17.70;64.90;;;;;;5032307;28;75214;-73
2021/05/16 04:26:34;;;;;;;;;;;17.70;64.80;;;;;;5014025;28;74502;-73
2021/05/16 04:28:59;;;;;;;;;;;17.70;64.50;;;;;;5013795;28;78088;-72
2021/05/16 04:31:25;;;;;;;;;;;17.70;65.30;;;;;;5032300;28;74361;-72
2021/05/16 04:33:51;;;;;;;;;;;17.60;65.50;;;;;;5032418;28;74436;-71
2021/05/16 04:36:16;;;;;;;;;;;17.60;65.60;;;;;;5013293;28;77209;-72
2021/05/16 04:38:44;;;;;;;;;;;17.60;65.60;;;;;;5032096;28;75266;-71
2021/05/16 04:41:10;;;;;;;;;;;17.50;65.50;;;;;;5013792;28;75871;-72
2021/05/16 04:43:36;;;;;;;;;;;17.50;65.70;;;;;;5013807;28;76069;-76
2021/05/16 04:46:02;;;;;;;;;;;17.40;66.20;;;;;;5013738;28;75243;-77
2021/05/16 04:48:27;;;;;;;;;;;17.40;66.40;;;;;;5031896;28;75216;-74
2021/05/16 04:50:53;;;;;;;;;;;17.30;66.20;;;;;;5029968;28;75045;-73
2021/05/16 04:53:19;;;;;;;;;;;17.40;66.10;;;;;;5013755;28;77590;-74
2021/05/16 04:55:44;;;;;;;;;;;17.40;66.10;;;;;;5032657;28;74402;-73
2021/05/16 04:58:10;;;;;;;;;;;17.40;66.30;;;;;;5031720;28;75141;-71
2021/05/16 05:00:35;;;;;;;;;;;17.30;66.40;;;;;;5031877;28;75168;-71
2021/05/16 05:03:02;;;;;;;;;;;17.20;66.50;;;;;;5013557;28;75301;-70
2021/05/16 05:05:29;;;;;;;;;;;17.20;66.50;;;;;;5032443;28;75328;-70
2021/05/16 05:07:54;;;;;;;;;;;17.20;66.60;;;;;;5046798;28;75086;-71
2021/05/16 05:10:20;;;;;;;;;;;17.20;66.50;;;;;;5013540;28;76203;-70
2021/05/16 05:12:45;;;;;;;;;;;17.20;66.40;;;;;;5031715;28;75503;-69
2021/05/16 05:15:11;;;;;;;;;;;17.20;66.50;;;;;;5034652;28;75120;-70
2021/05/16 05:17:40;;;;;;;;;;;17.20;66.50;;;;;;5016680;28;77044;-67
2021/05/16 05:20:07;;;;;;;;;;;17.10;66.50;;;;;;5016565;28;75553;-68
2021/05/16 05:22:33;;;;;;;;;;;17.10;66.80;;;;;;5034956;28;74415;-70
2021/05/16 05:24:58;;;;;;;;;;;17.00;67.20;;;;;;5016702;28;75079;-72
2021/05/16 05:27:24;;;;;;;;;;;17.00;67.40;;;;;;5033156;28;75175;-71
2021/05/16 05:29:50;;;;;;;;;;;17.00;67.40;;;;;;5035556;28;74583;-73
2021/05/16 05:32:16;;;;;;;;;;;17.00;67.10;;;;;;5016160;28;77353;-70
2021/05/16 05:34:41;;;;;;;;;;;17.10;67.30;;;;;;5016771;28;75330;-74
2021/05/16 05:37:07;;;;;;;;;;;17.10;67.20;;;;;;5016078;28;76812;-73
2021/05/16 05:39:32;;;;;;;;;;;17.10;67.00;;;;;;5016669;28;75372;-70
2021/05/16 05:41:58;;;;;;;;;;;17.10;67.10;;;;;;5034477;28;75102;-72
2021/05/16 05:44:24;;;;;;;;;;;17.10;67.40;;;;;;5016235;28;77402;-72
2021/05/16 05:46:50;;;;;;;;;;;17.10;67.20;;;;;;5034955;28;75122;-70
2021/05/16 05:49:15;;;;;;;;;;;17.10;67.20;;;;;;5034604;28;74469;-74
2021/05/16 05:51:41;;;;;;;;;;;17.10;67.20;;;;;;5016052;28;77430;-74
2021/05/16 05:54:07;;;;;;;;;;;17.10;67.20;;;;;;5015577;28;74720;-72
2021/05/16 05:56:34;;;;;;;;;;;17.20;67.10;;;;;;5015928;28;76390;-73
2021/05/16 05:59:00;;;;;;;;;;;17.20;67.30;;;;;;5016446;28;75311;-73
2021/05/16 06:01:26;;;;;;;;;;;17.20;67.20;;;;;;5033050;28;76978;-74
2021/05/16 06:03:51;;;;;;;;;;;17.30;67.00;;;;;;5034552;28;75109;-75
2021/05/16 06:06:17;;;;;;;;;;;17.40;66.60;;;;;;5016097;28;77520;-76
2021/05/16 06:08:43;;;;;;;;;;;17.40;66.60;;;;;;5015916;28;76155;-75
2021/05/16 06:11:08;;;;;;;;;;;17.40;66.50;;;;;;5016053;28;77594;-73
2021/05/16 06:13:34;;;;;;;;;;;17.50;66.30;;;;;;5015413;28;75984;-72
2021/05/16 06:16:00;;;;;;;;;;;17.40;67.20;;;;;;5032825;28;75193;-72
2021/05/16 06:18:26;;;;;;;;;;;17.40;66.80;;;;;;5015583;28;75115;-70
2021/05/16 06:20:51;;;;;;;;;;;17.40;66.80;;;;;;5015672;28;77102;-72
2021/05/16 06:23:18;;;;;;;;;;;17.50;66.40;;;;;;5015803;28;74686;-71
2021/05/16 06:25:45;;;;;;;;;;;17.50;66.50;;;;;;5015351;28;76031;-71
2021/05/16 06:28:10;;;;;;;;;;;17.60;66.10;;;;;;5015234;28;77365;-71
2021/05/16 06:30:36;;;;;;;;;;;17.70;65.90;;;;;;5015523;28;77113;-71
2021/05/16 06:33:02;;;;;;;;;;;17.80;65.70;;;;;;5015712;28;77922;-72
2021/05/16 06:35:27;;;;;;;;;;;17.80;65.40;;;;;;5048950;28;75741;-72
2021/05/16 06:37:53;;;;;;;;;;;17.80;65.40;;;;;;5015359;28;76316;-72
2021/05/16 06:40:19;;;;;;;;;;;17.90;65.40;;;;;;5033885;28;74455;-73
2021/05/16 06:42:45;;;;;;;;;;;17.90;65.00;;;;;;5015673;28;76919;-74
2021/05/16 06:45:11;;;;;;;;;;;17.90;65.00;;;;;;5015274;28;74708;-72
2021/05/16 06:47:37;;;;;;;;;;;18.00;64.90;;;;;;5033989;28;74449;-72
2021/05/16 06:50:07;;;;;;;;;;;18.00;64.70;;;;;;5033785;28;74410;-73
2021/05/16 06:52:33;;;;;;;;;;;18.10;65.00;;;;;;5015055;28;77884;-74
2021/05/16 06:54:59;;;;;;;;;;;18.10;65.00;;;;;;5034097;28;75653;-71
2021/05/16 06:57:25;;;;;;;;;;;18.10;65.20;;;;;;5033520;28;75256;-73
2021/05/16 06:59:51;;;;;;;;;;;18.10;64.80;;;;;;5015719;28;75353;-72
2021/05/16 07:02:16;;;;;;;;;;;18.20;64.60;;;;;;5015330;28;77344;-73
2021/05/16 07:04:43;;;;;;;;;;;18.30;64.50;;;;;;5014837;28;75374;-71
2021/05/16 07:07:09;;;;;;;;;;;18.30;64.10;;;;;;5033253;28;75671;-72
2021/05/16 07:09:35;;;;;;;;;;;18.40;63.90;;;;;;5033188;28;75794;-67
2021/05/16 07:12:00;;;;;;;;;;;18.40;63.30;;;;;;5033156;28;74682;-66
2021/05/16 07:14:26;;;;;;;;;;;18.40;63.20;;;;;;5014965;28;74507;-71
2021/05/16 07:16:52;;;;;;;;;;;18.40;63.20;;;;;;5015182;28;75407;-72
2021/05/16 07:19:17;;;;;;;;;;;18.40;63.20;;;;;;5033355;28;75093;-73
2021/05/16 07:21:43;;;;;;;;;;;18.50;63.10;;;;;;5014732;28;74767;-72
2021/05/16 07:24:09;;;;;;;;;;;18.60;62.90;;;;;;5015064;28;75356;-73
2021/05/16 07:26:34;;;;;;;;;;;18.60;63.20;;;;;;5033335;28;74912;-72
2021/05/16 07:29:00;;;;;;;;;;;18.50;62.80;;;;;;5052909;28;75020;-67
2021/05/16 07:31:26;;;;;;;;;;;18.50;62.80;;;;;;5033769;28;77082;-70
2021/05/16 07:33:51;;;;;;;;;;;18.50;62.90;;;;;;5053240;28;75718;-75
2021/05/16 07:36:17;;;;;;;;;;;18.60;62.70;;;;;;5034581;27;75420;-73
2021/05/16 07:38:45;;;;;;;;;;;18.70;62.40;;;;;;5052422;28;75169;-70
2021/05/16 07:41:11;;;;;;;;;;;18.70;62.50;;;;;;5053419;28;75268;-72
2021/05/16 07:43:36;;;;;;;;;;;18.80;62.30;;;;;;5053224;28;75266;-70
2021/05/16 07:46:02;;;;;;;;;;;18.80;62.50;;;;;;5035102;28;77764;-66
2021/05/16 07:48:31;;;;;;;;;;;18.90;62.10;;;;;;5034622;28;74649;-70
2021/05/16 07:50:57;;;;;;;;;;;18.90;62.50;;;;;;5053371;28;75138;-69
2021/05/16 07:53:23;;;;;;;;;;;18.90;62.00;;;;;;5035188;28;75254;-68
2021/05/16 07:55:49;;;;;;;;;;;19.00;61.80;;;;;;5052927;28;74487;-71
2021/05/16 07:58:14;;;;;;;;;;;19.10;61.80;;;;;;5034930;28;77222;-70
2021/05/16 08:00:40;;;;;;;;;;;19.10;61.40;;;;;;5034746;28;75401;-70
2021/05/16 08:03:06;;;;;;;;;;;19.30;61.20;;;;;;5035032;28;75423;-69
2021/05/16 08:05:31;;;;;;;;;;;19.40;60.70;;;;;;5034816;28;75514;-72
2021/05/16 08:07:57;;;;;;;;;;;19.40;60.60;;;;;;5034207;28;75737;-72
2021/05/16 08:10:23;;;;;;;;;;;19.50;60.30;;;;;;5053339;28;75648;-70
2021/05/16 08:12:49;;;;;;;;;;;19.50;60.20;;;;;;5034446;28;75752;-64
2021/05/16 08:15:15;;;;;;;;;;;19.70;59.90;;;;;;5052626;28;75114;-68
2021/05/16 08:17:41;;;;;;;;;;;19.70;59.80;;;;;;5033998;28;77485;-65
2021/05/16 08:20:07;;;;;;;;;;;19.80;59.60;;;;;;5034267;28;75038;-67
2021/05/16 08:22:33;;;;;;;;;;;19.90;59.50;;;;;;5034092;28;76708;-67
2021/05/16 08:24:59;;;;;;;;;;;19.90;59.60;;;;;;5052924;28;75197;-66
2021/05/16 08:27:24;;;;;;;;;;;20.00;59.40;;;;;;5053026;28;75405;-69
2021/05/16 08:29:50;;;;;;;;;;;20.10;59.00;;;;;;5052684;28;74459;-71
2021/05/16 08:32:16;;;;;;;;;;;20.20;59.10;;;;;;5034026;28;76450;-71
2021/05/16 08:34:42;;;;;;;;;;;20.40;58.70;;;;;;5034237;28;76524;-69
2021/05/16 08:37:10;;;;;;;;;;;20.40;58.40;;;;;;5052563;28;74398;-68
2021/05/16 08:39:35;;;;;;;;;;;20.40;58.30;;;;;;5026196;28;75812;-71
2021/05/16 08:42:01;;;;;;;;;;;20.50;58.30;;;;;;5052306;28;75206;-69
2021/05/16 08:44:27;;;;;;;;;;;20.60;57.40;;;;;;5034234;28;75824;-70
2021/05/16 08:46:52;;;;;;;;;;;20.60;56.60;;;;;;5052778;28;74438;-68
2021/05/16 08:49:19;;;;;;;;;;;20.60;56.60;;;;;;5035592;28;77360;-71
2021/05/16 08:51:45;;;;;;;;;;;20.70;56.70;;;;;;5037147;28;77342;-71
2021/05/16 08:54:15;;;;;;;;;;;20.80;56.50;;;;;;5037440;28;74501;-69
2021/05/16 08:56:40;;;;;;;;;;;20.90;56.50;;;;;;5056252;28;75696;-70
2021/05/16 08:59:06;;;;;;;;;;;20.90;56.00;;;;;;5037507;28;74778;-70
2021/05/16 09:01:38;;;;;;;;;;;20.90;56.10;;;;;;5056251;28;75306;-68
2021/05/16 09:04:34;;;;;;;;;;;21.00;55.60;;;;;;5037788;28;78124;-71
2021/05/16 09:07:01;;;;;;;;;;;21.10;55.30;;;;;;5035601;28;76063;-67
2021/05/16 09:09:27;;;;;;;;;;;21.20;55.10;;;;;;5055300;28;74894;-69
2021/05/16 09:11:54;;;;;;;;;;;21.40;55.00;;;;;;5037065;28;78621;-67
2021/05/16 09:14:38;;;;;;;;;;;21.50;54.40;;;;;;5037063;28;76240;-64
2021/05/16 09:17:22;;;;;;;;;;;21.50;54.50;;;;;;5055740;28;76024;-67
2021/05/16 09:19:50;;;;;;;;;;;21.60;54.40;;;;;;5037065;28;77304;-67
2021/05/16 09:22:29;;;;;;;;;;;21.70;53.90;;;;;;5036846;28;75584;-65
2021/05/16 09:25:14;;;;;;;;;;;21.80;53.60;;;;;;5037527;28;74521;-65
2021/05/16 09:27:40;;;;;;;;;;;21.90;53.60;;;;;;5036757;28;77223;-68
2021/05/16 09:30:15;;;;;;;;;;;22.00;53.40;;;;;;5036793;28;77552;-67
2021/05/16 09:32:47;;;;;;;;;;;22.20;53.70;;;;;;5037004;28;75841;-66
2021/05/16 09:35:13;;;;;;;;;;;22.40;52.40;;;;;;5055679;28;74724;-67
2021/05/16 09:38:14;;;;;;;;;;;22.60;51.30;;;;;;5054701;28;75256;-68
2021/05/16 09:40:48;;;;;;;;;;;22.70;50.10;;;;;;4984249;28;76345;-68
2021/05/16 09:43:16;;;;;;;;;;;22.90;49.40;;;;;;5036997;28;75187;-69
2021/05/16 09:46:01;;;;;;;;;;;23.00;49.60;;;;;;5036724;28;77862;-66
2021/05/16 09:48:31;;;;;;;;;;;23.10;48.20;;;;;;5055184;28;75103;-69
2021/05/16 09:51:11;;;;;;;;;;;23.20;48.90;;;;;;5055324;28;74627;-69
2021/05/16 09:53:52;;;;;;;;;;;23.30;49.10;;;;;;5054774;28;75431;-68
2021/05/16 09:56:20;;;;;;;;;;;23.40;47.80;;;;;;5036365;28;75730;-70
2021/05/16 09:58:45;;;;;;;;;;;23.60;48.30;;;;;;5036655;28;75756;-68
2021/05/16 10:01:13;;;;;;;;;;;23.70;48.00;;;;;;5053487;27;74992;-71
2021/05/16 10:03:39;;;;;;;;;;;23.80;46.60;;;;;;5036484;28;77599;-68
2021/05/16 10:06:04;;;;;;;;;;;23.90;46.60;;;;;;5036431;28;77597;-68
2021/05/16 10:08:30;;;;;;;;;;;24.00;46.60;;;;;;5035527;28;77724;-68
2021/05/16 10:10:57;;;;;;;;;;;24.20;46.70;;;;;;5036359;28;75294;-68
2021/05/16 10:13:24;;;;;;;;;;;24.40;45.10;;;;;;5036324;28;78411;-69
2021/05/16 10:15:51;;;;;;;;;;;24.50;44.90;;;;;;5036813;28;76129;-70
2021/05/16 10:18:17;;;;;;;;;;;24.70;45.20;;;;;;5036034;28;75977;-69
2021/05/16 10:20:43;;;;;;;;;;;24.90;44.60;;;;;;5054595;28;75219;-69
2021/05/16 10:23:11;;;;;;;;;;;25.00;44.40;;;;;;5034913;28;77693;-69
2021/05/16 10:25:41;;;;;;;;;;;25.10;43.90;;;;;;5036234;28;76421;-66
2021/05/16 10:28:08;;;;;;;;;;;25.20;42.70;;;;;;5035999;28;74776;-69
2021/05/16 10:30:33;;;;;;;;;;;25.30;43.90;;;;;;5035665;28;75408;-67
2021/05/16 10:32:59;;;;;;;;;;;25.50;42.90;;;;;;5035999;28;77386;-70
2021/05/16 10:35:27;;;;;;;;;;;25.80;43.20;;;;;;5035665;28;76545;-70
2021/05/16 10:37:56;;;;;;;;;;;26.00;41.20;;;;;;5035567;28;76460;-69
2021/05/16 10:40:22;;;;;;;;;;;26.10;42.00;;;;;;5054406;28;74541;-68
2021/05/16 10:42:49;;;;;;;;;;;26.20;41.70;;;;;;5035714;28;74542;-69
2021/05/16 10:45:16;;;;;;;;;;;26.40;41.20;;;;;;5035497;28;76842;-69
2021/05/16 10:47:42;;;;;;;;;;;26.50;41.60;;;;;;5035924;28;75347;-69
2021/05/16 10:50:11;;;;;;;;;;;26.80;40.40;;;;;;5054077;28;75294;-69
2021/05/16 10:52:37;;;;;;;;;;;27.10;40.30;;;;;;5035290;28;75312;-67
2021/05/16 10:55:04;;;;;;;;;;;27.40;39.80;;;;;;5035273;28;77283;-68
2021/05/16 10:57:36;;;;;;;;;;;27.40;39.70;;;;;;5054319;28;74567;-67
2021/05/16 11:00:20;;;;;;;;;;;27.60;39.10;;;;;;5035454;28;75536;-68
2021/05/16 11:03:17;;;;;;;;;;;27.70;39.20;;;;;;5054030;28;75184;-69
2021/05/16 11:08:31;;;;;;;;;;;27.90;37.70;;;;;;5050677;28;74509;-68
2021/05/16 11:10:58;;;;;;;;;;;27.90;38.20;;;;;;5034649;28;75192;-68
2021/05/16 11:13:29;;;;;;;;;;;28.00;38.00;;;;;;5034956;28;77263;-69
2021/05/16 11:15:54;;;;;;;;;;;28.20;38.00;;;;;;5053687;28;75367;-69
2021/05/16 11:18:22;;;;;;;;;;;28.20;38.10;;;;;;5034719;28;77342;-69
2021/05/16 11:20:52;;;;;;;;;;;28.60;37.90;;;;;;5053570;28;75427;-68
2021/05/16 11:23:28;;;;;;;;;;;29.20;36.30;;;;;;5053214;28;75343;-67
2021/05/16 11:26:00;;;;;;;;;;;29.40;35.40;;;;;;5035049;28;74694;-67
2021/05/16 11:28:36;;;;;;;;;;;29.10;36.20;;;;;;5034667;28;77391;-66
2021/05/16 11:31:12;;;;;;;;;;;29.90;34.50;;;;;;5035099;28;76479;-68
2021/05/16 11:33:39;;;;;;;;;;;30.40;33.90;;;;;;5053189;28;75778;-68
2021/05/16 11:36:09;;;;;;;;;;;30.70;34.00;;;;;;5035058;28;75657;-68
2021/05/16 11:38:36;;;;;;;;;;;31.50;33.10;;;;;;5053137;28;74720;-68
2021/05/16 11:41:03;;;;;;;;;;;32.60;31.70;;;;;;5034429;28;76778;-68
2021/05/16 11:43:29;;;;;;;;;;;33.60;29.60;;;;;;5034591;28;77438;-67
2021/05/16 11:45:55;;;;;;;;;;;34.50;28.60;;;;;;5053078;28;74488;-68
2021/05/16 11:48:31;;;;;;;;;;;35.20;27.40;;;;;;5034441;28;74516;-68
2021/05/16 11:51:05;;;;;;;;;;;35.90;26.60;;;;;;5052997;28;75169;-68
2021/05/16 11:53:31;;;;;;;;;;;36.40;27.00;;;;;;5034532;28;77652;-69
2021/05/16 11:56:05;;;;;;;;;;;36.60;25.80;;;;;;5034466;28;75624;-69
2021/05/16 11:58:31;;;;;;;;;;;36.90;26.10;;;;;;5034849;28;77021;-68
2021/05/16 12:00:57;;;;;;;;;;;37.20;25.30;;;;;;5052946;28;75028;-69
2021/05/16 12:03:23;;;;;;;;;;;37.50;25.20;;;;;;5034322;28;75556;-68
2021/05/16 12:05:49;;;;;;;;;;;37.90;24.10;;;;;;5053313;28;74411;-70
2021/05/16 12:08:16;;;;;;;;;;;37.70;24.80;;;;;;5052452;28;75464;-69
2021/05/16 12:10:42;;;;;;;;;;;37.50;25.10;;;;;;5033612;28;76799;-70
2021/05/16 12:13:24;;;;;;;;;;;37.50;24.60;;;;;;5052941;28;75364;-70
2021/05/16 12:15:50;;;;;;;;;;;37.50;24.60;;;;;;5034175;28;77136;-70
2021/05/16 12:18:19;;;;;;;;;;;37.70;25.30;;;;;;5034577;28;74433;-68
2021/05/16 12:20:45;;;;;;;;;;;39.20;22.40;;;;;;5052662;28;75249;-70
2021/05/16 12:23:13;;;;;;;;;;;39.40;23.70;;;;;;5051783;28;75335;-69
2021/05/16 12:25:39;;;;;;;;;;;40.50;22.30;;;;;;5052844;28;75372;-71
2021/05/16 12:28:05;;;;;;;;;;;40.60;22.60;;;;;;5034384;28;74526;-68
2021/05/16 12:30:31;;;;;;;;;;;41.20;21.80;;;;;;5052773;28;75179;-70
2021/05/16 12:32:57;;;;;;;;;;;41.00;21.70;;;;;;5053180;28;74404;-71
2021/05/16 12:35:23;;;;;;;;;;;41.40;21.50;;;;;;5034217;28;74757;-70
2021/05/16 12:37:50;;;;;;;;;;;41.40;21.30;;;;;;5033701;28;75063;-69
2021/05/16 12:40:27;;;;;;;;;;;42.30;20.90;;;;;;5033844;28;75365;-70
2021/05/16 12:43:06;;;;;;;;;;;42.80;21.20;;;;;;5052557;28;75220;-71
2021/05/16 12:45:32;;;;;;;;;;;43.00;20.90;;;;;;5034071;28;74413;-71
2021/05/16 12:48:04;;;;;;;;;;;43.50;19.30;;;;;;5034324;28;75418;-71
2021/05/16 12:50:37;;;;;;;;;;;43.40;20.80;;;;;;5033997;28;77098;-71
2021/05/16 12:53:25;;;;;;;;;;;43.40;20.30;;;;;;5033657;28;76252;-71
2021/05/16 12:55:52;;;;;;;;;;;43.80;19.90;;;;;;5034183;28;77285;-71
2021/05/16 12:58:22;;;;;;;;;;;44.30;19.80;;;;;;5034052;28;75501;-71
2021/05/16 13:00:55;;;;;;;;;;;44.80;19.40;;;;;;5052146;28;75160;-72
2021/05/16 13:03:31;;;;;;;;;;;45.10;19.10;;;;;;5052659;28;75266;-71
2021/05/16 13:06:01;;;;;;;;;;;45.50;19.00;;;;;;5033105;28;77538;-71
2021/05/16 13:08:36;;;;;;;;;;;45.20;18.50;;;;;;5052371;28;75246;-71
2021/05/16 13:11:03;;;;;;;;;;;45.10;18.80;;;;;;5033664;28;75450;-71
2021/05/16 13:13:33;;;;;;;;;;;44.90;19.50;;;;;;5033896;28;77038;-72
2021/05/16 13:16:03;;;;;;;;;;;45.80;18.30;;;;;;5033751;28;78180;-71
2021/05/16 13:18:29;;;;;;;;;;;46.50;18.20;;;;;;5033527;28;75740;-69
2021/05/16 13:21:09;;;;;;;;;;;46.60;17.40;;;;;;5033524;28;75031;-71
2021/05/16 13:23:35;;;;;;;;;;;46.60;18.10;;;;;;5051972;28;74406;-71
2021/05/16 13:26:01;;;;;;;;;;;46.90;18.10;;;;;;5033254;28;77719;-72
2021/05/16 13:28:28;;;;;;;;;;;46.40;18.10;;;;;;5051399;28;75086;-69
2021/05/16 13:30:58;;;;;;;;;;;46.10;18.60;;;;;;5051961;28;75459;-70
2021/05/16 13:33:35;;;;;;;;;;;45.70;17.50;;;;;;5032710;28;77980;-70
2021/05/16 13:36:05;;;;;;;;;;;45.30;18.20;;;;;;5054937;28;75424;-69
2021/05/16 13:38:32;;;;;;;;;;;45.90;18.20;;;;;;5036333;28;74641;-70
2021/05/16 13:40:59;;;;;;;;;;;45.70;18.60;;;;;;5036494;28;77835;-70
2021/05/16 13:43:24;;;;;;;;;;;46.80;18.50;;;;;;5036713;28;76422;-70
2021/05/16 13:45:50;;;;;;;;;;;47.50;17.20;;;;;;5036447;27;76327;-70
2021/05/16 13:48:16;;;;;;;;;;;47.90;16.40;;;;;;5055941;28;75672;-62
2021/05/16 13:50:41;;;;;;;;;;;47.70;17.20;;;;;;5054617;27;74642;-66
2021/05/16 13:53:07;;;;;;;;;;;47.80;17.00;;;;;;5036554;28;77477;-63
2021/05/16 13:55:33;;;;;;;;;;;47.90;17.10;;;;;;5028273;28;74532;-65
2021/05/16 13:58:01;;;;;;;;;;;47.50;17.60;;;;;;5036295;28;75131;-63
2021/05/16 14:00:27;;;;;;;;;;;46.70;17.80;;;;;;5055125;28;77464;-64
2021/05/16 14:02:53;;;;;;;;;;;45.90;18.20;;;;;;5036210;28;77068;-62
2021/05/16 14:05:18;;;;;;;;;;;45.70;18.30;;;;;;5037167;28;75033;-63
2021/05/16 14:07:44;;;;;;;;;;;44.50;18.80;;;;;;5054864;28;75315;-65
2021/05/16 14:10:10;;;;;;;;;;;44.20;19.20;;;;;;5036547;28;75223;-63
2021/05/16 14:12:37;;;;;;;;;;;44.50;18.80;;;;;;5037049;28;76514;-63
2021/05/16 14:15:02;;;;;;;;;;;44.10;19.50;;;;;;5054420;28;75427;-63
2021/05/16 14:17:28;;;;;;;;;;;45.00;19.00;;;;;;5035626;28;76978;-64
2021/05/16 14:19:55;;;;;;;;;;;46.20;18.40;;;;;;5053010;28;74923;-65